createdAt,value
2022-12-13T00:00:14.056Z,53.10
2022-12-13T00:01:12.977Z,52.90
2022-12-13T00:02:13.066Z,50.70
2022-12-13T00:03:12.954Z,56.70
2022-12-13T00:04:13.253Z,59.20
2022-12-13T00:05:13.353Z,55.90
2022-12-13T00:06:13.070Z,55.00
2022-12-13T00:07:12.918Z,56.90
2022-12-13T00:08:12.938Z,55.40
2022-12-13T00:09:12.894Z,56.00
2022-12-13T00:10:12.898Z,52.80
2022-12-13T00:11:12.881Z,55.10
2022-12-13T00:12:12.883Z,57.60
2022-12-13T00:13:12.853Z,55.00
2022-12-13T00:14:12.963Z,58.90
2022-12-13T00:15:13.267Z,57.20
2022-12-13T00:16:12.931Z,55.40
2022-12-13T00:17:12.814Z,54.80
2022-12-13T00:18:12.837Z,58.30
2022-12-13T00:19:12.825Z,55.00
2022-12-13T00:20:12.811Z,53.90
2022-12-13T00:21:12.769Z,55.40
2022-12-13T00:22:12.777Z,56.70
2022-12-13T00:23:12.745Z,55.00
2022-12-13T00:24:12.767Z,54.60
2022-12-13T00:25:13.202Z,57.60
2022-12-13T00:26:12.755Z,58.70
2022-12-13T00:27:12.694Z,56.30
2022-12-13T00:28:12.745Z,58.10
2022-12-13T00:29:12.692Z,56.30
2022-12-13T00:30:12.702Z,53.80
2022-12-13T00:31:52.957Z,54.10
2022-12-13T00:32:13.675Z,58.20
2022-12-13T00:33:12.635Z,55.30
2022-12-13T00:34:12.655Z,59.70
2022-12-13T00:35:12.883Z,57.70
2022-12-13T00:36:12.602Z,56.70
2022-12-13T00:37:12.609Z,52.10
2022-12-13T00:38:12.609Z,55.40
2022-12-13T00:39:12.574Z,56.30
2022-12-13T00:40:12.694Z,55.30
2022-12-13T00:41:12.554Z,52.80
2022-12-13T00:42:12.555Z,55.80
2022-12-13T00:43:12.525Z,51.90
2022-12-13T00:44:12.598Z,51.10
2022-12-13T00:45:12.803Z,59.60
2022-12-13T00:46:12.639Z,57.10
2022-12-13T00:47:12.491Z,54.50
2022-12-13T00:48:12.526Z,54.50
2022-12-13T00:49:12.476Z,58.30
2022-12-13T00:50:12.564Z,62.90
2022-12-13T00:51:12.442Z,59.50
2022-12-13T00:52:12.452Z,58.20
2022-12-13T00:53:12.431Z,56.50
2022-12-13T00:54:12.432Z,59.50
2022-12-13T00:55:12.705Z,60.10
2022-12-13T00:56:12.481Z,59.60
2022-12-13T00:57:12.393Z,58.90
2022-12-13T00:58:12.464Z,55.00
2022-12-13T00:59:12.363Z,55.10
2022-12-13T01:00:12.401Z,59.50
2022-12-13T01:01:12.411Z,58.70
2022-12-13T01:02:12.401Z,55.30
2022-12-13T01:03:12.356Z,54.90
2022-12-13T01:04:12.334Z,58.20
2022-12-13T01:05:12.578Z,59.10
2022-12-13T01:06:15.294Z,56.60
2022-12-13T01:07:12.296Z,61.30
2022-12-13T01:08:12.310Z,61.20
2022-12-13T01:09:12.264Z,60.60
2022-12-13T01:10:12.271Z,57.80
2022-12-13T01:11:12.237Z,61.10
2022-12-13T01:12:12.294Z,59.00
2022-12-13T01:13:12.218Z,60.20
2022-12-13T01:14:12.342Z,59.60
2022-12-13T01:15:12.381Z,57.60
2022-12-13T01:16:12.327Z,61.70
2022-12-13T01:17:12.242Z,57.70
2022-12-13T01:18:12.166Z,56.20
2022-12-13T01:19:12.163Z,60.50
2022-12-13T01:20:12.188Z,61.50
2022-12-13T01:21:12.141Z,56.20
2022-12-13T01:22:12.131Z,61.60
2022-12-13T01:23:12.122Z,57.60
2022-12-13T01:24:12.335Z,57.60
2022-12-13T01:25:12.359Z,61.90
2022-12-13T01:26:12.093Z,60.50
2022-12-13T01:27:12.084Z,58.40
2022-12-13T01:28:12.107Z,59.30
2022-12-13T01:29:12.076Z,57.60
2022-12-13T01:30:12.096Z,58.20
2022-12-13T01:31:12.067Z,67.10
2022-12-13T01:32:12.113Z,60.70
2022-12-13T01:33:13.940Z,60.80
2022-12-13T01:34:12.163Z,59.30
2022-12-13T01:35:12.536Z,65.80
2022-12-13T01:36:11.997Z,58.80
2022-12-13T01:37:11.983Z,63.30
2022-12-13T01:38:15.665Z,60.20
2022-12-13T01:39:15.256Z,61.50
2022-12-13T01:40:15.854Z,57.50
2022-12-13T01:41:17.676Z,63.30
2022-12-13T01:42:12.994Z,66.30
2022-12-13T01:43:14.274Z,62.00
2022-12-13T01:44:11.933Z,63.40
2022-12-13T01:45:12.068Z,64.10
2022-12-13T01:46:12.129Z,59.80
2022-12-13T01:47:11.860Z,59.60
2022-12-13T01:48:11.932Z,56.30
2022-12-13T01:49:20.525Z,59.20
2022-12-13T01:50:12.913Z,61.70
2022-12-13T01:51:11.821Z,59.40
2022-12-13T01:52:11.930Z,59.20
2022-12-13T01:53:11.802Z,62.60
2022-12-13T01:54:11.811Z,60.70
2022-12-13T01:55:12.783Z,60.30
2022-12-13T01:56:11.783Z,62.30
2022-12-13T01:57:11.753Z,61.10
2022-12-13T01:58:11.790Z,62.90
2022-12-13T01:59:11.763Z,61.10
2022-12-13T02:00:11.774Z,62.00
2022-12-13T02:01:11.737Z,61.60
2022-12-13T02:02:11.752Z,62.40
2022-12-13T02:03:21.605Z,59.50
2022-12-13T02:04:12.687Z,58.90
2022-12-13T02:05:11.848Z,59.70
2022-12-13T02:06:11.704Z,62.50
2022-12-13T02:07:11.651Z,56.70
2022-12-13T02:08:11.719Z,60.80
2022-12-13T02:09:11.636Z,60.40
2022-12-13T02:10:11.692Z,63.80
2022-12-13T02:11:11.654Z,61.10
2022-12-13T02:12:11.692Z,60.00
2022-12-13T02:13:11.600Z,60.20
2022-12-13T02:14:11.600Z,59.10
2022-12-13T02:15:11.580Z,59.60
2022-12-13T02:16:11.698Z,58.90
2022-12-13T02:17:11.583Z,62.30
2022-12-13T02:18:11.542Z,58.10
2022-12-13T02:19:11.555Z,59.50
2022-12-13T02:20:11.522Z,57.70
2022-12-13T02:21:11.502Z,59.80
2022-12-13T02:22:11.513Z,61.10
2022-12-13T02:23:11.487Z,59.20
2022-12-13T02:24:11.493Z,59.30
2022-12-13T02:25:11.688Z,56.00
2022-12-13T02:26:11.510Z,57.80
2022-12-13T02:27:11.485Z,56.20
2022-12-13T02:28:31.205Z,55.60
2022-12-13T02:29:12.462Z,55.30
2022-12-13T02:30:12.442Z,55.90
2022-12-13T02:31:11.452Z,53.80
2022-12-13T02:32:11.385Z,57.90
2022-12-13T02:33:11.383Z,56.90
2022-12-13T02:34:11.446Z,62.40
2022-12-13T02:35:11.380Z,62.00
2022-12-13T02:36:11.370Z,56.30
2022-12-13T02:37:17.603Z,61.90
2022-12-13T02:38:12.339Z,60.20
2022-12-13T02:39:11.344Z,57.40
2022-12-13T02:40:11.353Z,57.30
2022-12-13T02:41:11.307Z,64.30
2022-12-13T02:42:21.521Z,62.70
2022-12-13T02:43:12.302Z,58.90
2022-12-13T02:44:21.966Z,60.90
2022-12-13T02:45:17.197Z,59.70
2022-12-13T02:46:12.287Z,59.50
2022-12-13T02:47:12.787Z,60.20
2022-12-13T02:48:12.240Z,58.80
2022-12-13T02:49:11.209Z,58.80
2022-12-13T02:50:11.226Z,61.90
2022-12-13T02:51:11.208Z,58.50
2022-12-13T02:52:11.201Z,61.80
2022-12-13T02:53:11.159Z,57.30
2022-12-13T02:54:11.263Z,66.00
2022-12-13T02:55:11.150Z,58.10
2022-12-13T02:56:11.183Z,58.20
2022-12-13T02:57:11.120Z,60.10
2022-12-13T02:58:11.147Z,55.80
2022-12-13T02:59:11.140Z,60.90
2022-12-13T03:00:11.205Z,59.90
2022-12-13T03:01:27.593Z,60.70
2022-12-13T03:02:12.192Z,62.50
2022-12-13T03:03:11.145Z,60.40
2022-12-13T03:04:11.060Z,61.50
2022-12-13T03:05:11.050Z,57.00
2022-12-13T03:06:11.099Z,57.30
2022-12-13T03:07:11.102Z,55.60
2022-12-13T03:08:11.115Z,62.00
2022-12-13T03:09:10.992Z,59.40
2022-12-13T03:10:11.020Z,60.60
2022-12-13T03:11:11.009Z,61.10
2022-12-13T03:12:11.046Z,58.00
2022-12-13T03:13:10.979Z,65.80
2022-12-13T03:14:11.141Z,64.60
2022-12-13T03:15:10.957Z,61.50
2022-12-13T03:16:11.323Z,68.60
2022-12-13T03:17:10.920Z,59.70
2022-12-13T03:18:10.974Z,58.60
2022-12-13T03:19:10.914Z,58.40
2022-12-13T03:20:22.455Z,64.00
2022-12-13T03:21:11.880Z,64.60
2022-12-13T03:22:10.937Z,60.70
2022-12-13T03:23:10.861Z,64.60
2022-12-13T03:24:10.883Z,60.60
2022-12-13T03:25:10.836Z,60.40
2022-12-13T03:26:10.864Z,63.90
2022-12-13T03:27:10.819Z,59.40
2022-12-13T03:28:10.914Z,64.90
2022-12-13T03:29:10.790Z,67.40
2022-12-13T03:30:10.840Z,65.50
2022-12-13T03:31:10.869Z,62.20
2022-12-13T03:32:10.780Z,66.60
2022-12-13T03:33:10.802Z,66.90
2022-12-13T03:34:10.758Z,64.20
2022-12-13T03:35:21.864Z,63.20
2022-12-13T03:36:11.836Z,67.60
2022-12-13T03:37:10.707Z,65.80
2022-12-13T03:38:10.769Z,66.20
2022-12-13T03:39:10.725Z,66.50
2022-12-13T03:40:10.696Z,68.00
2022-12-13T03:41:10.770Z,65.60
2022-12-13T03:42:10.722Z,66.40
2022-12-13T03:43:10.652Z,63.80
2022-12-13T03:44:10.638Z,67.70
2022-12-13T03:45:10.630Z,67.30
2022-12-13T03:46:10.724Z,71.20
2022-12-13T03:47:10.590Z,68.10
2022-12-13T03:48:10.653Z,70.40
2022-12-13T03:49:15.336Z,71.20
2022-12-13T03:50:26.393Z,71.30
2022-12-13T03:51:11.580Z,70.40
2022-12-13T03:52:10.617Z,67.30
2022-12-13T03:53:32.221Z,67.20
2022-12-13T03:54:11.521Z,69.00
2022-12-13T03:55:10.506Z,65.70
2022-12-13T03:56:10.550Z,64.10
2022-12-13T03:57:10.498Z,69.40
2022-12-13T03:58:10.610Z,70.30
2022-12-13T03:59:10.472Z,69.60
2022-12-13T04:00:10.472Z,70.80
2022-12-13T04:01:10.478Z,67.40
2022-12-13T04:02:10.565Z,68.20
2022-12-13T04:03:10.512Z,73.10
2022-12-13T04:04:10.470Z,72.00
2022-12-13T04:05:10.399Z,68.80
2022-12-13T04:06:10.429Z,71.40
2022-12-13T04:07:22.219Z,73.60
2022-12-13T04:08:21.604Z,66.00
2022-12-13T04:09:11.364Z,69.10
2022-12-13T04:10:26.415Z,69.50
2022-12-13T04:11:11.352Z,72.40
2022-12-13T04:12:10.332Z,71.60
2022-12-13T04:13:10.338Z,69.70
2022-12-13T04:14:10.369Z,71.50
2022-12-13T04:15:10.319Z,68.50
2022-12-13T04:16:10.389Z,65.50
2022-12-13T04:17:10.278Z,66.50
2022-12-13T04:18:10.318Z,71.10
2022-12-13T04:19:10.248Z,68.90
2022-12-13T04:20:10.330Z,70.50
2022-12-13T04:21:10.244Z,75.70
2022-12-13T04:22:10.252Z,71.20
2022-12-13T04:23:10.742Z,70.80
2022-12-13T04:24:10.260Z,69.80
2022-12-13T04:25:10.217Z,71.10
2022-12-13T04:26:10.384Z,70.80
2022-12-13T04:27:10.180Z,72.30
2022-12-13T04:28:10.189Z,70.20
2022-12-13T04:29:10.152Z,77.90
2022-12-13T04:30:10.224Z,74.40
2022-12-13T04:31:10.269Z,72.10
2022-12-13T04:32:26.855Z,68.90
2022-12-13T04:33:11.110Z,74.90
2022-12-13T04:34:10.097Z,70.40
2022-12-13T04:35:10.112Z,73.30
2022-12-13T04:36:10.252Z,72.20
2022-12-13T04:37:10.080Z,70.80
2022-12-13T04:38:10.059Z,71.10
2022-12-13T04:39:22.225Z,74.90
2022-12-13T04:40:11.100Z,76.90
2022-12-13T04:41:10.038Z,70.60
2022-12-13T04:42:10.087Z,70.30
2022-12-13T04:43:10.011Z,74.50
2022-12-13T04:44:28.839Z,78.00
2022-12-13T04:45:10.976Z,67.80
2022-12-13T04:46:10.092Z,73.00
2022-12-13T04:47:09.966Z,67.80
2022-12-13T04:48:10.037Z,74.00
2022-12-13T04:49:09.958Z,72.40
2022-12-13T04:50:09.968Z,66.40
2022-12-13T04:51:09.925Z,70.00
2022-12-13T04:52:09.916Z,72.30
2022-12-13T04:53:09.917Z,72.10
2022-12-13T04:54:23.972Z,72.20
2022-12-13T04:55:10.874Z,69.60
2022-12-13T04:56:09.943Z,69.80
2022-12-13T04:57:09.945Z,69.00
2022-12-13T04:58:09.858Z,67.40
2022-12-13T04:59:09.856Z,66.80
2022-12-13T05:00:09.898Z,70.30
2022-12-13T05:01:09.882Z,72.10
2022-12-13T05:02:10.067Z,72.60
2022-12-13T05:03:09.793Z,71.40
2022-12-13T05:04:09.795Z,71.80
2022-12-13T05:05:09.767Z,68.20
2022-12-13T05:06:26.817Z,68.30
2022-12-13T05:07:10.836Z,71.30
2022-12-13T05:08:09.780Z,68.00
2022-12-13T05:09:11.141Z,66.20
2022-12-13T05:10:09.965Z,70.30
2022-12-13T05:11:09.699Z,72.10
2022-12-13T05:12:21.867Z,68.60
2022-12-13T05:13:10.706Z,68.40
2022-12-13T05:14:10.037Z,73.00
2022-12-13T05:15:09.684Z,68.10
2022-12-13T05:16:09.740Z,66.70
2022-12-13T05:17:09.656Z,70.80
2022-12-13T05:18:10.992Z,66.60
2022-12-13T05:19:09.734Z,66.30
2022-12-13T05:20:09.704Z,64.60
2022-12-13T05:21:09.595Z,66.00
2022-12-13T05:22:12.494Z,63.00
2022-12-13T05:23:10.584Z,64.10
2022-12-13T05:24:09.650Z,65.60
2022-12-13T05:25:09.566Z,69.60
2022-12-13T05:26:09.587Z,67.40
2022-12-13T05:27:24.835Z,66.50
2022-12-13T05:28:27.490Z,63.20
2022-12-13T05:29:10.505Z,60.30
2022-12-13T05:30:09.564Z,61.40
2022-12-13T05:31:23.201Z,65.90
2022-12-13T05:32:10.615Z,63.80
2022-12-13T05:33:09.475Z,61.60
2022-12-13T05:34:09.522Z,60.80
2022-12-13T05:35:09.446Z,61.10
2022-12-13T05:36:09.502Z,60.60
2022-12-13T05:37:09.466Z,57.30
2022-12-13T05:38:09.549Z,59.80
2022-12-13T05:39:28.155Z,58.90
2022-12-13T05:40:10.472Z,60.70
2022-12-13T05:41:09.405Z,59.30
2022-12-13T05:42:09.435Z,55.40
2022-12-13T05:43:21.203Z,58.90
2022-12-13T05:44:10.356Z,53.30
2022-12-13T05:45:09.342Z,56.80
2022-12-13T05:46:09.396Z,51.00
2022-12-13T05:47:09.344Z,58.50
2022-12-13T06:18:10.343Z,53.20
2022-12-13T06:19:10.243Z,52.90
2022-12-13T06:20:23.602Z,48.60
2022-12-13T06:21:11.240Z,45.20
2022-12-13T06:22:10.313Z,49.60
2022-12-13T06:23:10.210Z,50.10
2022-12-13T06:24:10.271Z,48.70
2022-12-13T06:25:30.995Z,52.60
2022-12-13T06:26:11.765Z,44.50
2022-12-13T06:27:10.190Z,51.60
2022-12-13T06:28:10.202Z,50.20
2022-12-13T06:29:10.139Z,50.80
2022-12-13T06:30:10.141Z,47.60
2022-12-13T06:31:10.171Z,47.80
2022-12-13T06:32:10.126Z,47.80
2022-12-13T06:33:10.102Z,50.70
2022-12-13T06:34:14.203Z,50.30
2022-12-13T06:35:28.007Z,51.50
2022-12-13T06:36:11.204Z,49.20
2022-12-13T06:37:10.080Z,52.30
2022-12-13T06:38:11.939Z,51.50
2022-12-13T06:39:10.041Z,52.00
2022-12-13T06:40:10.061Z,52.30
2022-12-13T06:41:10.022Z,54.40
2022-12-13T06:42:10.078Z,53.80
2022-12-13T06:43:10.008Z,49.10
2022-12-13T06:44:10.052Z,49.60
2022-12-13T06:45:09.985Z,52.00
2022-12-13T06:46:10.096Z,54.10
2022-12-13T06:47:12.219Z,49.70
2022-12-13T06:48:09.976Z,52.40
2022-12-13T06:49:09.977Z,51.60
2022-12-13T06:50:10.010Z,49.40
2022-12-13T06:51:10.065Z,52.90
2022-12-13T06:52:10.024Z,53.00
2022-12-13T06:53:09.911Z,54.00
2022-12-13T06:54:10.030Z,56.70
2022-12-13T06:55:09.877Z,54.50
2022-12-13T06:56:09.878Z,56.00
2022-12-13T06:57:09.891Z,69.70
2022-12-13T06:58:09.887Z,50.80
2022-12-13T06:59:09.846Z,56.90
2022-12-13T07:00:09.833Z,56.90
2022-12-13T07:01:14.877Z,73.10
2022-12-13T07:02:24.398Z,66.60
2022-12-13T07:03:10.835Z,61.90
2022-12-13T07:04:29.901Z,54.00
2022-12-13T07:05:10.769Z,53.90
2022-12-13T07:06:09.797Z,52.40
2022-12-13T07:07:09.751Z,52.10
2022-12-13T07:08:09.837Z,52.70
2022-12-13T07:09:09.728Z,50.30
2022-12-13T07:10:12.728Z,77.00
2022-12-13T07:11:10.720Z,56.20
2022-12-13T07:12:09.785Z,61.90
2022-12-13T07:13:09.751Z,58.10
2022-12-13T07:14:09.690Z,54.60
2022-12-13T07:15:09.668Z,53.90
2022-12-13T07:16:09.783Z,53.00
2022-12-13T07:17:09.649Z,54.60
2022-12-13T07:18:09.666Z,52.20
2022-12-13T07:19:23.022Z,52.10
2022-12-13T07:20:10.618Z,54.30
2022-12-13T07:21:09.607Z,52.50
2022-12-13T07:22:10.658Z,57.00
2022-12-13T07:23:09.607Z,56.50
2022-12-13T07:24:09.602Z,58.30
2022-12-13T07:25:28.417Z,52.30
2022-12-13T07:26:10.631Z,65.40
2022-12-13T07:27:09.547Z,58.40
2022-12-13T07:28:09.595Z,56.90
2022-12-13T07:29:09.560Z,59.80
2022-12-13T07:30:09.608Z,52.90
2022-12-13T07:31:09.547Z,60.10
2022-12-13T07:32:09.629Z,55.70
2022-12-13T07:33:09.518Z,52.40
2022-12-13T07:34:14.149Z,53.20
2022-12-13T07:35:10.461Z,53.60
2022-12-13T07:36:09.458Z,56.70
2022-12-13T07:37:09.438Z,57.90
2022-12-13T07:38:10.589Z,52.30
2022-12-13T07:39:09.437Z,55.10
2022-12-13T07:40:09.477Z,60.30
2022-12-13T07:41:09.463Z,56.40
2022-12-13T07:42:09.560Z,53.00
2022-12-13T07:43:09.408Z,61.10
2022-12-13T07:44:09.387Z,51.40
2022-12-13T07:45:10.612Z,56.70
2022-12-13T07:46:09.469Z,54.70
2022-12-13T07:47:09.339Z,49.40
2022-12-13T07:48:09.907Z,51.60
2022-12-13T07:49:09.318Z,52.20
2022-12-13T07:50:23.973Z,57.60
2022-12-13T07:51:10.319Z,50.70
2022-12-13T07:52:09.354Z,48.30
2022-12-13T07:53:09.289Z,54.20
2022-12-13T07:54:09.383Z,56.50
2022-12-13T07:55:10.259Z,54.60
2022-12-13T07:56:09.247Z,51.50
2022-12-13T07:57:09.255Z,47.20
2022-12-13T07:58:09.285Z,57.70
2022-12-13T07:59:09.219Z,53.40
2022-12-13T08:00:09.251Z,53.70
2022-12-13T08:01:09.186Z,52.80
2022-12-13T08:02:09.323Z,49.40
2022-12-13T08:03:18.351Z,56.30
2022-12-13T08:05:41.406Z,86.00
2022-12-13T08:06:41.328Z,83.00
2022-12-13T08:07:41.329Z,49.70
2022-12-13T08:08:41.402Z,51.40
2022-12-13T08:09:41.298Z,51.60
2022-12-13T08:10:41.288Z,52.80
2022-12-13T08:11:41.360Z,52.30
2022-12-13T08:12:41.265Z,50.80
2022-12-13T08:13:41.278Z,50.80
2022-12-13T08:14:41.245Z,49.00
2022-12-13T08:15:41.304Z,53.20
2022-12-13T08:16:41.306Z,50.50
2022-12-13T08:17:41.256Z,61.30
2022-12-13T08:18:41.228Z,51.00
2022-12-13T08:19:41.196Z,56.10
2022-12-13T08:20:41.187Z,53.30
2022-12-13T08:22:01.328Z,48.90
2022-12-13T08:22:42.167Z,56.20
2022-12-13T08:23:42.225Z,61.70
2022-12-13T08:24:41.173Z,56.60
2022-12-13T08:25:41.152Z,53.70
2022-12-13T08:26:42.181Z,53.30
2022-12-13T08:27:42.921Z,55.00
2022-12-13T08:28:41.118Z,51.70
2022-12-13T08:29:41.113Z,57.70
2022-12-13T08:30:41.087Z,48.30
2022-12-13T08:31:41.139Z,54.40
2022-12-13T08:32:41.090Z,61.10
2022-12-13T08:33:41.134Z,53.30
2022-12-13T08:34:41.056Z,47.60
2022-12-13T08:35:41.036Z,52.00
2022-12-13T08:36:41.028Z,56.70
2022-12-13T08:37:41.524Z,53.80
2022-12-13T08:38:41.028Z,56.00
2022-12-13T08:39:41.003Z,44.30
2022-12-13T08:40:41.028Z,48.90
2022-12-13T08:41:40.995Z,49.00
2022-12-13T08:42:41.024Z,52.40
2022-12-13T08:43:41.069Z,50.10
2022-12-13T08:44:40.935Z,53.10
2022-12-13T08:45:40.948Z,48.80
2022-12-13T08:46:41.031Z,56.00
2022-12-13T08:47:42.128Z,55.40
2022-12-13T08:48:44.401Z,49.70
2022-12-13T08:49:40.900Z,51.00
2022-12-13T08:50:40.919Z,52.80
2022-12-13T08:51:40.873Z,55.30
2022-12-13T08:52:42.564Z,49.10
2022-12-13T08:53:41.620Z,47.90
2022-12-13T08:54:40.918Z,52.30
2022-12-13T08:55:40.858Z,58.60
2022-12-13T08:56:43.606Z,55.00
2022-12-13T08:57:40.859Z,55.20
2022-12-13T08:58:40.856Z,52.60
2022-12-13T08:59:40.789Z,50.30
2022-12-13T09:00:40.903Z,52.10
2022-12-13T09:01:40.788Z,48.30
2022-12-13T09:02:40.846Z,47.80
2022-12-13T09:03:40.746Z,48.80
2022-12-13T09:04:40.782Z,50.10
2022-12-13T09:05:40.724Z,50.00
2022-12-13T09:06:40.725Z,50.10
2022-12-13T09:07:40.743Z,47.30
2022-12-13T09:08:40.846Z,45.60
2022-12-13T09:09:40.736Z,49.00
2022-12-13T09:11:10.696Z,51.90
2022-12-13T09:11:41.667Z,44.60
2022-12-13T09:12:41.617Z,41.90
2022-12-13T09:13:43.372Z,43.70
2022-12-13T09:14:45.353Z,43.30
2022-12-13T09:15:46.229Z,47.00
2022-12-13T09:16:40.695Z,47.60
2022-12-13T11:00:42.313Z,61.30
2022-12-13T11:01:42.297Z,57.80
2022-12-13T11:02:42.312Z,41.10
2022-12-13T11:03:42.259Z,43.10
2022-12-13T11:04:42.251Z,41.70
2022-12-13T11:05:42.265Z,37.20
2022-12-13T11:06:43.483Z,37.10
2022-12-13T11:07:42.225Z,35.50
2022-12-13T11:08:42.212Z,34.30
2022-12-13T11:09:42.191Z,37.90
2022-12-13T11:10:42.430Z,38.60
2022-12-13T11:11:42.177Z,39.10
2022-12-13T11:12:42.171Z,35.90
2022-12-13T11:13:42.164Z,37.50
2022-12-13T11:14:43.673Z,36.30
2022-12-13T11:15:42.144Z,34.60
2022-12-13T11:16:42.122Z,39.80
2022-12-13T11:17:42.210Z,34.50
2022-12-13T11:18:42.097Z,30.50
2022-12-13T11:19:42.132Z,30.20
2022-12-13T11:20:42.093Z,34.40
2022-12-13T11:21:42.066Z,34.80
2022-12-13T11:22:42.056Z,29.50
2022-12-13T11:23:42.057Z,33.70
2022-12-13T11:24:42.027Z,35.70
2022-12-13T11:25:42.035Z,41.30
2022-12-13T11:26:42.008Z,30.80
2022-12-13T11:27:41.997Z,37.90
2022-12-13T11:28:42.405Z,49.60
2022-12-13T11:29:42.796Z,47.30
2022-12-13T11:30:41.977Z,31.90
2022-12-13T11:31:42.041Z,30.10
2022-12-13T11:32:41.959Z,60.90
2022-12-13T11:33:48.147Z,33.00
2022-12-13T11:34:42.920Z,31.30
2022-12-13T11:35:41.927Z,64.40
2022-12-13T11:36:41.898Z,33.90
2022-12-13T11:37:41.897Z,48.00
2022-12-13T11:38:41.880Z,31.30
2022-12-13T11:39:41.870Z,27.00
2022-12-13T11:40:41.868Z,30.10
2022-12-13T11:41:41.859Z,34.00
2022-12-13T11:42:41.833Z,32.80
2022-12-13T11:43:41.830Z,37.70
2022-12-13T11:44:47.388Z,35.10
2022-12-13T11:45:42.869Z,31.60
2022-12-13T11:46:41.812Z,30.20
2022-12-13T11:47:41.793Z,28.10
2022-12-13T11:48:41.784Z,29.00
2022-12-13T11:49:41.774Z,29.10
2022-12-13T11:50:41.821Z,26.80
2022-12-13T11:51:41.747Z,27.60
2022-12-13T11:52:41.735Z,28.60
2022-12-13T11:53:41.727Z,30.00
2022-12-13T11:54:41.705Z,27.40
2022-12-13T11:55:41.703Z,27.50
2022-12-13T11:56:41.686Z,28.00
2022-12-13T11:57:41.681Z,25.60
2022-12-13T11:59:42.655Z,87.70
2022-12-13T12:00:41.762Z,43.80
2022-12-13T12:01:41.634Z,30.50
2022-12-13T12:02:41.676Z,25.70
2022-12-13T12:03:41.645Z,25.20
2022-12-13T12:04:41.606Z,27.20
2022-12-13T12:05:41.605Z,63.70
2022-12-13T12:06:41.577Z,81.80
2022-12-13T12:07:58.431Z,44.70
2022-12-13T12:08:42.551Z,27.30
2022-12-13T12:09:41.548Z,26.30
2022-12-13T12:10:47.362Z,25.10
2022-12-13T12:11:42.526Z,38.70
2022-12-13T12:12:41.516Z,29.70
2022-12-13T12:13:50.945Z,24.60
2022-12-13T12:14:42.487Z,27.90
2022-12-13T12:15:42.214Z,23.40
2022-12-13T12:16:41.470Z,22.60
2022-12-13T12:17:42.103Z,27.20
2022-12-13T12:18:41.441Z,23.90
2022-12-13T12:19:41.446Z,24.90
2022-12-13T12:20:41.489Z,26.00
2022-12-13T12:22:42.418Z,24.50
2022-12-13T12:23:46.322Z,26.60
2022-12-13T12:24:42.381Z,23.60
2022-12-13T12:25:42.538Z,23.90
2022-12-13T12:26:41.381Z,23.70
2022-12-13T12:27:41.351Z,24.70
2022-12-13T12:28:43.993Z,21.90
2022-12-13T12:29:41.332Z,23.00
2022-12-13T12:30:41.321Z,26.00
2022-12-13T12:31:50.928Z,23.30
2022-12-13T12:32:42.292Z,23.00
2022-12-13T12:33:41.287Z,24.30
2022-12-13T12:34:41.274Z,22.50
2022-12-13T12:35:46.137Z,22.20
2022-12-13T12:36:42.260Z,25.70
2022-12-13T12:37:41.396Z,21.20
2022-12-13T12:38:41.224Z,26.30
2022-12-13T12:39:41.216Z,26.20
2022-12-13T12:41:07.537Z,21.10
2022-12-13T12:41:45.483Z,24.00
2022-12-13T12:43:11.898Z,22.50
2022-12-13T12:43:42.175Z,23.90
2022-12-13T12:44:41.166Z,23.50
2022-12-13T12:45:56.259Z,24.60
2022-12-13T12:47:18.993Z,26.00
2022-12-13T12:48:38.598Z,24.20
2022-12-13T12:48:55.075Z,24.20
2022-12-13T12:49:42.119Z,25.30
2022-12-13T12:50:43.041Z,26.00
2022-12-13T12:51:41.118Z,26.50
2022-12-13T12:52:41.075Z,23.70
2022-12-13T12:53:41.078Z,24.10
2022-12-13T12:54:41.048Z,27.50
2022-12-13T12:55:41.049Z,23.90
2022-12-13T12:56:41.048Z,25.00
2022-12-13T12:57:41.140Z,26.80
2022-12-13T12:58:41.017Z,25.90
2022-12-13T12:59:41.014Z,25.20
2022-12-13T13:00:40.997Z,24.70
2022-12-13T13:01:43.368Z,25.30
2022-12-13T13:02:40.983Z,27.20
2022-12-13T13:03:41.003Z,31.10
2022-12-13T13:04:41.121Z,28.30
2022-12-13T13:05:40.948Z,26.90
2022-12-13T13:06:40.928Z,27.70
2022-12-13T13:07:40.920Z,26.80
2022-12-13T13:08:40.907Z,42.40
2022-12-13T13:09:40.908Z,36.30
2022-12-13T13:10:40.881Z,30.60
2022-12-13T13:11:43.356Z,29.90
2022-12-13T13:12:42.963Z,28.60
2022-12-13T13:13:45.962Z,25.60
2022-12-13T14:17:52.165Z,55.80
2022-12-13T14:18:52.107Z,50.60
2022-12-13T14:19:56.302Z,24.70
2022-12-13T14:20:52.105Z,24.90
2022-12-13T14:21:52.176Z,23.70
2022-12-13T14:22:52.093Z,27.50
2022-12-13T14:23:52.077Z,28.20
2022-12-13T14:24:52.057Z,32.40
2022-12-13T14:25:52.657Z,28.30
2022-12-13T14:26:52.059Z,30.20
2022-12-13T14:27:52.026Z,27.30
2022-12-13T14:28:51.999Z,24.80
2022-12-13T14:29:58.291Z,29.10
2022-12-13T14:30:57.320Z,27.00
2022-12-13T14:31:52.077Z,25.80
2022-12-13T14:32:51.965Z,27.10
2022-12-13T14:33:51.982Z,30.60
2022-12-13T14:34:51.947Z,28.70
2022-12-13T14:35:51.936Z,28.40
2022-12-13T14:36:51.930Z,26.40
2022-12-13T14:37:52.008Z,31.30
2022-12-13T14:38:51.900Z,28.40
2022-12-13T14:39:51.905Z,29.40
2022-12-13T14:40:51.888Z,30.70
2022-12-13T14:41:56.621Z,30.80
2022-12-13T14:42:52.848Z,30.10
2022-12-13T14:43:51.863Z,25.50
2022-12-13T14:44:51.858Z,32.20
2022-12-13T14:45:51.856Z,34.10
2022-12-13T14:46:53.179Z,28.60
2022-12-13T14:47:51.809Z,31.00
2022-12-13T14:48:51.787Z,39.20
2022-12-13T14:49:51.787Z,40.70
2022-12-13T14:50:51.778Z,32.40
2022-12-13T14:51:51.797Z,28.20
2022-12-13T14:52:51.860Z,29.30
2022-12-13T14:53:51.794Z,30.40
2022-12-13T14:54:51.727Z,35.30
2022-12-13T14:55:52.759Z,28.40
2022-12-13T14:56:51.719Z,29.80
2022-12-13T14:57:51.815Z,35.10
2022-12-13T14:58:51.792Z,33.90
2022-12-13T14:59:51.699Z,25.80
2022-12-13T15:00:51.806Z,28.60
2022-12-13T15:01:51.666Z,29.00
2022-12-13T15:02:51.637Z,28.60
2022-12-13T15:03:51.718Z,28.40
2022-12-13T15:04:51.609Z,26.40
2022-12-13T15:05:51.612Z,30.10
2022-12-13T15:06:51.787Z,28.20
2022-12-13T15:07:51.579Z,26.90
2022-12-13T15:08:51.589Z,26.30
2022-12-13T15:09:51.557Z,30.60
2022-12-13T15:10:51.550Z,27.50
2022-12-13T15:11:51.558Z,29.90
2022-12-13T15:12:51.539Z,29.00
2022-12-13T15:13:51.540Z,32.10
2022-12-13T15:14:51.502Z,28.70
2022-12-13T15:15:51.549Z,32.50
2022-12-13T15:16:51.576Z,28.30
2022-12-13T15:17:51.727Z,25.10
2022-12-13T15:18:51.528Z,27.80
2022-12-13T15:19:51.544Z,27.20
2022-12-13T15:20:51.520Z,27.50
2022-12-13T15:21:51.547Z,28.90
2022-12-13T15:22:51.419Z,31.40
2022-12-13T15:23:51.431Z,24.10
2022-12-13T15:24:51.411Z,33.00
2022-12-13T17:30:46.388Z,20.40
2022-12-13T17:31:47.323Z,20.40
2022-12-13T17:32:46.321Z,20.60
2022-12-13T17:33:46.305Z,21.60
2022-12-13T17:34:46.298Z,20.10
2022-12-13T17:35:47.349Z,21.50
2022-12-13T17:36:46.267Z,19.60
2022-12-13T17:37:46.273Z,21.00
2022-12-13T17:38:46.244Z,26.70
2022-12-13T17:39:46.243Z,22.70
2022-12-13T17:40:51.016Z,23.20
2022-12-13T17:41:54.909Z,22.40
2022-12-13T17:42:47.214Z,25.60
2022-12-13T17:43:46.195Z,23.40
2022-12-13T17:44:46.220Z,20.90
2022-12-13T17:45:46.255Z,24.40
2022-12-13T17:46:54.665Z,27.40
2022-12-13T17:47:47.155Z,27.50
2022-12-13T17:48:46.172Z,24.10
2022-12-13T17:49:46.156Z,24.30
2022-12-13T17:50:46.122Z,24.30
2022-12-13T17:51:51.234Z,27.90
2022-12-13T17:52:47.105Z,24.60
2022-12-13T17:53:46.085Z,29.10
2022-12-13T17:54:46.090Z,26.60
2022-12-13T17:55:46.064Z,30.30
2022-12-13T17:56:46.057Z,26.90
2022-12-13T17:57:46.057Z,25.60
2022-12-13T17:58:46.054Z,25.10
2022-12-13T17:59:46.054Z,25.70
2022-12-13T18:00:46.015Z,22.60
2022-12-13T18:01:46.043Z,26.50
2022-12-13T18:02:55.078Z,26.10
2022-12-13T18:03:46.989Z,24.40
2022-12-13T18:04:46.034Z,25.30
2022-12-13T18:05:45.954Z,26.90
2022-12-13T18:06:45.949Z,26.00
2022-12-13T18:07:50.703Z,23.20
2022-12-13T18:08:46.954Z,25.40
2022-12-13T18:09:45.919Z,27.80
2022-12-13T18:10:46.112Z,26.40
2022-12-13T18:11:45.894Z,27.70
2022-12-13T18:12:45.885Z,24.30
2022-12-13T18:13:45.914Z,26.50
2022-12-13T18:14:45.869Z,25.10
2022-12-13T18:15:45.893Z,25.90
2022-12-13T18:16:45.881Z,27.20